Chiquita Schweiz — C6KD9 — position and weather

sailwx.info

Track history (hours):
 
Tides and Currents Weather Stations Pressure Air Temp Water Temp Dewpoint Dewpoint Depression Visibility Wind Speed Wind Dir Waves Ship Positions

Chiquita Schweiz

Last reported at 2018-Jan-22 19:27 UTC. Time now 2018-Jan-23 04:24 UTC.
Position N 11°14' W 074°15'.

Length 158.9 m; beam 24.4 m; draft 10 m.

Type: Ship. MMSI: 308124000.

Date/timePositionNaut miles runAvg speedWind from/ knotsBaromVisibWave heightAir tempDewpointWater temp
2018-Jan-22 19:27N 11°14' W 074°15'0 0.6
2018-Jan-22 19:00N 11°14' W 074°16'0 0.7
2018-Jan-22 18:30N 11°14' W 074°15'5 9.0
2018-Jan-22 18:00N 11°12' W 074°19'612.7
2018-Jan-22 17:30N 11°09' W 074°25'2 2.7
2018-Jan-22 16:54N 11°10' W 074°27'0 1.2
2018-Jan-22 16:30N 11°10' W 074°27'1 1.0
2018-Jan-22 15:52N 11°11' W 074°27'0 0.7
2018-Jan-22 15:28N 11°11' W 074°27'1 0.7
2018-Jan-22 13:27N 11°12' W 074°27'2 1.3
2018-Jan-22 12:13N 11°13' W 074°26'1 1.6
2018-Jan-22 11:45N 11°14' W 074°25'1 4.8
2018-Jan-22 11:29N 11°14' W 074°26'  
2018-Jan-20 02:31N 17°04' W 063°28'4413.5
2018-Jan-19 23:17N 17°43' W 063°06'515.2
2018-Jan-19 22:58N 17°48' W 063°06'815.2
2018-Jan-19 22:27N 17°55' W 063°06'511.5
2018-Jan-19 22:00N 18°00' W 063°04'1 1.7
2018-Jan-19 21:30N 18°00' W 063°03'0 0.0
2018-Jan-19 20:54N 18°00' W 063°03'0 0.0
2018-Jan-19 20:30N 18°00' W 063°03'0 0.0
2018-Jan-19 20:00N 18°00' W 063°03'0 0.0
2018-Jan-19 19:30N 18°00' W 063°03'0 0.1
2018-Jan-19 18:59N 18°00' W 063°03'2 3.3
2018-Jan-19 18:29N 18°00' W 063°04'2 4.3
2018-Jan-19 17:58N 17°58' W 063°03'  
2018-Jan-14 12:00N 37°48' W 024°06'   010 / 61033.910.8 16.014.315.0
Track history (hours):
 
Tides and Currents Weather Stations Pressure Air Temp Water Temp Dewpoint Dewpoint Depression Visibility Wind Speed Wind Dir Waves Ship Positions

Chiquita Schweiz

Last reported at 2018-Jan-22 19:27 UTC. Time now 2018-Jan-23 04:24 UTC.
Position N 11°14' W 074°15'.

Length 158.9 m; beam 24.4 m; draft 10 m.

Type: Ship. MMSI: 308124000.

Date/timePositionNaut miles runAvg speedWind from/ knotsBaromVisibWave heightAir tempDewpointWater temp
2018-Jan-22 19:27N 11°14' W 074°15'0 0.6
2018-Jan-22 19:00N 11°14' W 074°16'0 0.7
2018-Jan-22 18:30N 11°14' W 074°15'5 9.0
2018-Jan-22 18:00N 11°12' W 074°19'612.7
2018-Jan-22 17:30N 11°09' W 074°25'2 2.7
2018-Jan-22 16:54N 11°10' W 074°27'0 1.2
2018-Jan-22 16:30N 11°10' W 074°27'1 1.0
2018-Jan-22 15:52N 11°11' W 074°27'0 0.7
2018-Jan-22 15:28N 11°11' W 074°27'1 0.7
2018-Jan-22 13:27N 11°12' W 074°27'2 1.3
2018-Jan-22 12:13N 11°13' W 074°26'1 1.6
2018-Jan-22 11:45N 11°14' W 074°25'1 4.8
2018-Jan-22 11:29N 11°14' W 074°26'  
2018-Jan-20 02:31N 17°04' W 063°28'4413.5
2018-Jan-19 23:17N 17°43' W 063°06'515.2
2018-Jan-19 22:58N 17°48' W 063°06'815.2
2018-Jan-19 22:27N 17°55' W 063°06'511.5
2018-Jan-19 22:00N 18°00' W 063°04'1 1.7
2018-Jan-19 21:30N 18°00' W 063°03'0 0.0
2018-Jan-19 20:54N 18°00' W 063°03'0 0.0
2018-Jan-19 20:30N 18°00' W 063°03'0 0.0
2018-Jan-19 20:00N 18°00' W 063°03'0 0.0
2018-Jan-19 19:30N 18°00' W 063°03'0 0.1
2018-Jan-19 18:59N 18°00' W 063°03'2 3.3
2018-Jan-19 18:29N 18°00' W 063°04'2 4.3
2018-Jan-19 17:58N 17°58' W 063°03'  
2018-Jan-14 12:00N 37°48' W 024°06'   010 / 61033.910.8 16.014.315.0

Dump ship's entire track history